createdAt,value
2023-03-06T00:00:47.256Z,18.52
2023-03-06T00:03:14.757Z,18.13
2023-03-06T00:05:42.565Z,19.23
2023-03-06T00:08:09.657Z,18.15
2023-03-06T00:10:36.867Z,16.60
2023-03-06T00:13:06.664Z,18.27
2023-03-06T00:15:34.130Z,19.65
2023-03-06T00:18:04.448Z,19.08
2023-03-06T00:20:31.631Z,17.50
2023-03-06T00:22:58.774Z,19.73
2023-03-06T00:25:26.525Z,18.45
2023-03-06T00:27:53.708Z,18.40
2023-03-06T00:30:23.986Z,20.25
2023-03-06T00:32:53.420Z,19.00
2023-03-06T00:35:21.328Z,21.65
2023-03-06T00:37:48.624Z,18.98
2023-03-06T00:40:18.855Z,19.02
2023-03-06T00:42:46.522Z,20.23
2023-03-06T00:45:14.562Z,19.20
2023-03-06T00:47:42.183Z,20.98
2023-03-06T00:50:12.520Z,18.63
2023-03-06T00:52:40.850Z,24.77
2023-03-06T00:55:08.751Z,19.00
2023-03-06T00:57:35.913Z,21.58
2023-03-06T01:00:04.799Z,21.45
2023-03-06T01:02:32.116Z,20.02
2023-03-06T01:04:59.433Z,19.40
2023-03-06T01:07:28.255Z,18.35
2023-03-06T01:09:57.278Z,20.08
2023-03-06T01:12:24.615Z,19.50
2023-03-06T01:14:51.810Z,19.55
2023-03-06T01:17:19.035Z,18.45
2023-03-06T01:19:46.246Z,17.35
2023-03-06T01:22:14.333Z,19.20
2023-03-06T01:24:41.380Z,22.63
2023-03-06T01:27:08.520Z,19.70
2023-03-06T01:29:35.870Z,18.52
2023-03-06T01:32:03.228Z,18.55
2023-03-06T01:34:30.401Z,17.17
2023-03-06T01:36:57.581Z,18.10
2023-03-06T01:39:25.254Z,19.35
2023-03-06T01:41:52.391Z,17.70
2023-03-06T01:44:19.638Z,18.95
2023-03-06T01:46:47.441Z,18.08
2023-03-06T01:49:20.610Z,18.75
2023-03-06T01:52:18.747Z,18.65
2023-03-06T01:54:51.709Z,21.80
2023-03-06T01:57:26.556Z,19.30
2023-03-06T02:00:02.439Z,18.00
2023-03-06T02:02:44.187Z,15.88
2023-03-06T02:05:12.360Z,19.15
2023-03-06T02:07:43.034Z,18.70
2023-03-06T02:10:14.748Z,19.52
2023-03-06T02:12:44.032Z,19.92
2023-03-06T02:15:14.520Z,17.50
2023-03-06T02:17:44.413Z,19.85
2023-03-06T02:20:25.425Z,21.20
2023-03-06T02:23:05.479Z,13.23
2023-03-06T02:25:46.331Z,12.27
2023-03-06T02:28:17.501Z,14.45
2023-03-06T02:30:46.305Z,14.63
2023-03-06T02:33:16.230Z,11.90
2023-03-06T02:35:57.999Z,11.52
2023-03-06T02:38:44.405Z,12.60
2023-03-06T02:41:12.133Z,13.07
2023-03-06T02:43:41.284Z,12.57
2023-03-06T02:46:08.541Z,11.43
2023-03-06T02:48:35.782Z,14.73
2023-03-06T02:51:03.135Z,14.68
2023-03-06T02:53:30.466Z,14.77
2023-03-06T02:55:59.919Z,14.40
2023-03-06T02:58:27.198Z,18.40
2023-03-06T03:00:54.354Z,18.30
2023-03-06T03:03:21.910Z,14.95
2023-03-06T03:05:48.986Z,15.52
2023-03-06T03:08:29.218Z,12.93
2023-03-06T03:11:01.054Z,13.10
2023-03-06T03:13:33.633Z,14.85
2023-03-06T03:16:07.045Z,12.10
2023-03-06T03:18:34.880Z,10.43
2023-03-06T03:21:02.552Z,11.45
2023-03-06T03:23:29.828Z,10.13
2023-03-06T03:26:10.946Z,9.52
2023-03-06T03:28:41.668Z,10.35
2023-03-06T03:31:11.588Z,14.65
2023-03-06T03:33:40.081Z,10.02
2023-03-06T03:36:09.188Z,10.43
2023-03-06T03:38:40.770Z,14.98
2023-03-06T03:41:07.905Z,13.52
2023-03-06T03:43:35.675Z,13.10
2023-03-06T03:46:02.843Z,16.35
2023-03-06T03:48:30.072Z,11.45
2023-03-06T03:51:08.423Z,20.27
2023-03-06T03:53:39.756Z,21.02
2023-03-06T03:56:09.479Z,19.02
2023-03-06T03:58:44.101Z,17.88
2023-03-06T04:01:11.320Z,15.52
2023-03-06T04:03:38.637Z,16.05
2023-03-06T04:06:08.248Z,16.05
2023-03-06T04:08:36.096Z,18.67
2023-03-06T04:11:03.637Z,19.65
2023-03-06T04:13:32.738Z,19.73
2023-03-06T04:16:00.246Z,19.90
2023-03-06T04:18:30.164Z,21.70
2023-03-06T04:21:01.453Z,15.25
2023-03-06T04:23:28.785Z,14.80
2023-03-06T04:25:56.017Z,13.48
2023-03-06T04:28:23.986Z,13.05
2023-03-06T04:30:52.100Z,13.40
2023-03-06T04:33:20.631Z,19.75
2023-03-06T04:35:48.522Z,15.50
2023-03-06T04:38:21.345Z,18.30
2023-03-06T04:40:50.038Z,20.27
2023-03-06T04:43:17.350Z,23.00
2023-03-06T04:45:44.936Z,22.45
2023-03-06T04:48:18.150Z,16.77
2023-03-06T04:50:45.574Z,17.17
2023-03-06T04:53:14.754Z,14.50
2023-03-06T04:55:41.888Z,16.73
2023-03-06T04:58:10.302Z,17.88
2023-03-06T05:00:37.515Z,17.45
2023-03-06T05:03:04.837Z,16.45
2023-03-06T05:05:32.040Z,9.50
2023-03-06T05:07:59.171Z,16.30
2023-03-06T05:10:26.407Z,13.32
2023-03-06T05:12:53.646Z,14.05
2023-03-06T05:15:21.192Z,9.02
2023-03-06T05:17:48.391Z,10.80
2023-03-06T05:20:16.482Z,12.63
2023-03-06T05:22:44.135Z,17.30
2023-03-06T05:25:11.979Z,15.85
2023-03-06T05:27:39.594Z,13.80
2023-03-06T05:30:08.126Z,17.33
2023-03-06T05:32:35.893Z,21.70
2023-03-06T05:35:04.375Z,16.35
2023-03-06T05:37:31.800Z,17.33
2023-03-06T05:39:59.299Z,18.58
2023-03-06T05:42:28.681Z,22.42
2023-03-06T05:44:55.949Z,19.75
2023-03-06T05:47:23.160Z,17.83
2023-03-06T05:49:50.611Z,12.50
2023-03-06T05:52:18.067Z,15.32
2023-03-06T05:54:45.234Z,10.80
2023-03-06T05:57:12.386Z,13.93
2023-03-06T05:59:39.453Z,15.00
2023-03-06T06:02:06.704Z,18.02
2023-03-06T06:04:33.839Z,12.88
2023-03-06T06:07:01.863Z,11.90
2023-03-06T06:09:29.790Z,19.98
2023-03-06T06:12:00.147Z,20.02
2023-03-06T06:14:28.072Z,17.00
2023-03-06T06:16:55.388Z,21.83
2023-03-06T06:19:23.081Z,17.73
2023-03-06T06:21:54.175Z,23.40
2023-03-06T06:24:25.152Z,18.25
2023-03-06T06:26:54.469Z,23.33
2023-03-06T06:29:22.222Z,22.55
2023-03-06T06:31:50.167Z,22.35
2023-03-06T06:34:18.256Z,21.90
2023-03-06T06:36:45.406Z,21.00
2023-03-06T06:39:16.802Z,21.58
2023-03-06T06:42:00.069Z,21.80
2023-03-06T06:44:31.914Z,19.27
2023-03-06T06:47:22.004Z,19.92
2023-03-06T06:49:51.361Z,19.45
2023-03-06T06:54:46.205Z,17.33
2023-03-06T06:57:13.568Z,20.35
2023-03-06T06:59:40.750Z,19.33
2023-03-06T07:02:08.192Z,20.73
2023-03-06T07:04:35.391Z,19.85
2023-03-06T07:07:02.609Z,23.88
2023-03-06T07:09:31.145Z,18.63
2023-03-06T07:11:58.463Z,23.00
2023-03-06T07:14:25.708Z,20.17
2023-03-06T07:16:52.819Z,22.75
2023-03-06T07:19:20.039Z,18.98
2023-03-06T07:21:47.409Z,19.02
2023-03-06T07:24:14.586Z,15.30
2023-03-06T07:26:47.038Z,12.80
2023-03-06T07:31:41.971Z,19.40
2023-03-06T07:34:13.818Z,15.32
2023-03-06T07:36:41.340Z,25.25
2023-03-06T07:39:09.064Z,22.90
2023-03-06T07:41:36.495Z,23.10
2023-03-06T07:44:03.825Z,16.67
2023-03-06T07:46:31.091Z,20.38
2023-03-06T07:48:58.578Z,19.60
2023-03-06T07:51:26.022Z,22.00
2023-03-06T07:53:53.421Z,19.38
2023-03-06T07:56:20.535Z,21.38
2023-03-06T07:58:48.228Z,16.80
2023-03-06T08:01:18.576Z,13.73
2023-03-06T08:03:45.949Z,14.30
2023-03-06T08:06:22.237Z,17.10
2023-03-06T08:08:51.008Z,19.42
2023-03-06T08:11:21.640Z,16.30
2023-03-06T08:13:49.351Z,19.40
2023-03-06T08:16:17.801Z,14.98
2023-03-06T08:18:46.320Z,17.08
2023-03-06T08:21:17.176Z,17.20
2023-03-06T08:23:44.913Z,21.33
2023-03-06T08:26:15.342Z,17.95
2023-03-06T08:28:42.679Z,15.50
2023-03-06T08:31:12.918Z,13.35
2023-03-06T08:33:41.421Z,16.33
2023-03-06T08:36:08.844Z,17.92
2023-03-06T08:38:36.079Z,19.70
2023-03-06T08:41:03.395Z,21.77
2023-03-06T08:43:30.882Z,17.95
2023-03-06T08:45:59.461Z,20.48
2023-03-06T08:48:26.843Z,19.00
2023-03-06T08:50:54.210Z,18.73
2023-03-06T08:53:30.455Z,17.67
2023-03-06T08:58:31.464Z,13.43
2023-03-06T09:00:59.357Z,11.20
2023-03-06T09:03:27.439Z,20.05
2023-03-06T09:05:54.597Z,19.13
2023-03-06T09:08:21.742Z,18.05
2023-03-06T09:10:48.987Z,17.42
2023-03-06T09:13:16.254Z,19.17
2023-03-06T09:15:43.320Z,18.90
2023-03-06T09:18:10.570Z,17.58
2023-03-06T09:20:37.767Z,14.65
2023-03-06T09:23:05.020Z,15.85
2023-03-06T09:25:32.245Z,16.67
2023-03-06T09:28:10.805Z,16.50
2023-03-06T09:30:41.363Z,16.92
2023-03-06T09:33:08.573Z,17.92
2023-03-06T09:35:35.864Z,21.92
2023-03-06T09:38:03.011Z,20.13
2023-03-06T09:40:59.101Z,16.85
2023-03-06T09:43:31.749Z,17.50
2023-03-06T09:45:59.757Z,22.23
2023-03-06T09:48:45.776Z,17.73
2023-03-06T09:51:21.688Z,20.92
2023-03-06T09:54:12.194Z,17.67
2023-03-06T09:56:43.330Z,19.20
2023-03-06T09:59:26.742Z,18.08
2023-03-06T10:01:56.726Z,14.52
2023-03-06T10:04:37.175Z,16.52
2023-03-06T10:07:14.306Z,15.20
2023-03-06T10:10:02.445Z,15.60
2023-03-06T10:12:35.746Z,18.40
2023-03-06T10:15:11.656Z,18.60
2023-03-06T10:17:41.482Z,17.77
2023-03-06T10:20:20.584Z,17.85
2023-03-06T10:23:12.341Z,20.20
2023-03-06T10:26:01.388Z,15.45
2023-03-06T10:28:42.791Z,14.88
2023-03-06T10:31:13.234Z,15.30
2023-03-06T10:33:55.598Z,17.10
2023-03-06T10:36:28.850Z,14.18
2023-03-06T10:38:58.537Z,16.42
2023-03-06T10:41:32.033Z,13.02
2023-03-06T10:44:05.152Z,16.17
2023-03-06T10:46:44.665Z,16.15
2023-03-06T10:49:28.716Z,11.52
2023-03-06T10:52:07.055Z,15.32
2023-03-06T10:54:37.998Z,13.52
2023-03-06T10:57:24.140Z,15.57
2023-03-06T10:59:55.816Z,15.98
2023-03-06T11:02:28.518Z,16.30
2023-03-06T11:04:57.648Z,14.10
2023-03-06T11:07:27.337Z,13.40
2023-03-06T11:09:58.108Z,15.73
2023-03-06T11:12:51.154Z,14.23
2023-03-06T11:17:50.350Z,14.48
2023-03-06T11:20:49.951Z,13.50
2023-03-06T11:23:38.836Z,14.52
2023-03-06T11:26:17.876Z,15.32
2023-03-06T11:29:03.390Z,16.55
2023-03-06T11:32:10.413Z,15.70
2023-03-06T11:34:50.688Z,12.50
2023-03-06T11:37:37.793Z,14.65
2023-03-06T11:40:23.646Z,14.05
2023-03-06T11:43:03.220Z,17.88
2023-03-06T11:45:51.457Z,16.42
2023-03-06T11:48:25.334Z,17.77
2023-03-06T11:51:12.648Z,21.75
2023-03-06T11:53:40.634Z,12.43
2023-03-06T11:56:36.462Z,12.27
2023-03-06T11:59:22.802Z,17.02
2023-03-06T12:02:03.451Z,12.63
2023-03-06T12:04:54.578Z,13.70
2023-03-06T12:07:41.474Z,14.35
2023-03-06T12:10:24.723Z,18.65
2023-03-06T12:13:39.795Z,13.32
2023-03-06T12:16:25.926Z,13.75
2023-03-06T12:19:01.963Z,14.05
2023-03-06T12:21:56.254Z,14.32
2023-03-06T12:24:29.070Z,13.95
2023-03-06T12:27:27.615Z,14.73
2023-03-06T12:30:10.027Z,12.48
2023-03-06T12:32:58.138Z,14.02
2023-03-06T12:35:40.202Z,16.65
2023-03-06T12:38:56.607Z,16.98
2023-03-06T12:41:32.658Z,15.85
2023-03-06T12:44:11.744Z,12.95
2023-03-06T12:46:55.187Z,15.70
2023-03-06T12:49:32.441Z,14.07
2023-03-06T12:52:01.525Z,14.65
2023-03-06T12:54:31.750Z,13.65
2023-03-06T12:57:01.066Z,13.20
2023-03-06T12:59:55.064Z,12.70
2023-03-06T13:02:40.422Z,10.30
2023-03-06T13:05:38.103Z,13.07
2023-03-06T13:08:32.699Z,13.60
2023-03-06T13:11:16.530Z,13.80
2023-03-06T13:13:46.725Z,13.73
2023-03-06T13:16:33.224Z,12.30
2023-03-06T13:19:19.982Z,12.55
2023-03-06T13:21:55.857Z,14.23
2023-03-06T13:24:34.820Z,14.50
2023-03-06T13:27:06.164Z,14.82
2023-03-06T13:29:36.063Z,15.57
2023-03-06T13:32:03.319Z,11.25
2023-03-06T13:34:39.359Z,14.73
2023-03-06T13:37:23.347Z,12.00
2023-03-06T13:39:57.117Z,11.63
2023-03-06T13:42:28.688Z,13.02
2023-03-06T13:44:57.980Z,12.88
2023-03-06T13:47:31.301Z,13.90
2023-03-06T13:50:00.212Z,13.88
2023-03-06T13:52:54.288Z,11.43
2023-03-06T13:55:47.348Z,14.30
2023-03-06T13:58:30.766Z,13.80
2023-03-06T14:01:19.535Z,11.65
2023-03-06T14:04:02.623Z,12.23
2023-03-06T14:06:35.625Z,12.88
2023-03-06T14:09:07.115Z,11.82
2023-03-06T14:11:35.858Z,14.27
2023-03-06T14:14:03.476Z,13.35
2023-03-06T14:16:49.223Z,12.35
2023-03-06T14:19:19.005Z,11.60
2023-03-06T14:21:51.374Z,14.57
2023-03-06T14:24:36.090Z,14.73
2023-03-06T14:27:03.310Z,12.75
2023-03-06T14:29:33.845Z,13.65
2023-03-06T14:32:02.775Z,14.40
2023-03-06T14:34:33.275Z,9.80
2023-03-06T14:37:05.908Z,15.95
2023-03-06T14:39:44.290Z,15.82
2023-03-06T14:42:19.392Z,13.07
2023-03-06T14:45:00.663Z,14.70
2023-03-06T14:47:29.121Z,11.63
2023-03-06T14:50:26.103Z,13.80
2023-03-06T14:52:57.999Z,13.40
2023-03-06T14:55:27.855Z,11.50
2023-03-06T14:58:20.392Z,12.63
2023-03-06T15:00:55.054Z,14.55
2023-03-06T15:03:28.171Z,13.25
2023-03-06T15:05:56.332Z,10.43
2023-03-06T15:08:29.201Z,11.25
2023-03-06T15:11:07.610Z,13.35
2023-03-06T15:13:35.429Z,11.38
2023-03-06T15:16:05.865Z,12.68
2023-03-06T15:18:36.474Z,10.57
2023-03-06T15:21:20.120Z,13.68
2023-03-06T15:23:50.173Z,12.25
2023-03-06T15:26:29.441Z,10.80
2023-03-06T15:29:23.613Z,13.80
2023-03-06T15:31:51.005Z,12.20
2023-03-06T15:34:27.870Z,12.70
2023-03-06T15:36:58.072Z,11.50
2023-03-06T15:39:33.321Z,14.57
2023-03-06T15:42:09.366Z,11.93
2023-03-06T15:44:36.508Z,13.80
2023-03-06T15:47:08.712Z,11.13
2023-03-06T15:49:38.778Z,11.40
2023-03-06T15:52:07.204Z,13.00
2023-03-06T15:54:35.050Z,12.55
2023-03-06T15:57:08.757Z,11.20
2023-03-06T15:59:43.254Z,8.82
2023-03-06T16:02:19.696Z,11.25
2023-03-06T16:04:47.769Z,12.45
2023-03-06T16:07:16.068Z,11.60
2023-03-06T16:09:43.623Z,9.20
2023-03-06T16:12:21.782Z,12.15
2023-03-06T16:14:49.465Z,9.48
2023-03-06T16:17:17.498Z,10.18
2023-03-06T16:19:44.856Z,14.57
2023-03-06T16:22:12.462Z,9.02
2023-03-06T16:24:39.568Z,11.98
2023-03-06T16:27:07.238Z,13.45
2023-03-06T16:29:35.328Z,10.55
2023-03-06T16:32:02.533Z,13.48
2023-03-06T16:34:29.743Z,12.95
2023-03-06T16:36:56.878Z,8.75
2023-03-06T16:39:24.615Z,13.48
2023-03-06T16:41:52.503Z,10.00
2023-03-06T16:44:20.450Z,15.40
2023-03-06T16:46:50.366Z,10.13
2023-03-06T16:49:25.501Z,11.30
2023-03-06T16:51:53.863Z,8.60
2023-03-06T16:54:23.581Z,10.73
2023-03-06T16:56:50.698Z,7.45
2023-03-06T16:59:17.827Z,9.27
2023-03-06T17:01:45.097Z,9.90
2023-03-06T17:04:12.415Z,9.32
2023-03-06T17:06:42.127Z,8.48
2023-03-06T17:09:11.475Z,7.43
2023-03-06T17:11:43.619Z,10.65
2023-03-06T17:14:10.759Z,10.07
2023-03-06T17:16:40.609Z,10.63
2023-03-06T17:19:08.817Z,9.82
2023-03-06T17:21:38.661Z,9.38
2023-03-06T17:24:06.637Z,8.95
2023-03-06T17:26:34.527Z,8.43
2023-03-06T17:29:01.669Z,11.70
2023-03-06T17:31:29.750Z,8.85
2023-03-06T17:34:00.783Z,7.78
2023-03-06T17:36:30.532Z,8.63
2023-03-06T17:39:00.436Z,12.32
2023-03-06T17:41:27.968Z,10.70
2023-03-06T17:44:02.124Z,12.13
2023-03-06T17:46:29.424Z,11.90
2023-03-06T17:48:56.911Z,9.23
2023-03-06T17:51:24.142Z,10.82
2023-03-06T17:53:52.455Z,9.63
2023-03-06T17:56:19.830Z,10.48
2023-03-06T17:58:47.076Z,8.32
2023-03-06T18:01:30.569Z,10.55
2023-03-06T18:03:57.875Z,10.13
2023-03-06T18:06:30.462Z,9.95
2023-03-06T18:08:57.529Z,12.35
2023-03-06T18:11:24.953Z,10.68
2023-03-06T18:13:52.306Z,9.70
2023-03-06T18:16:23.298Z,10.68
2023-03-06T18:18:55.945Z,9.05
2023-03-06T18:21:24.698Z,9.30
2023-03-06T18:23:52.254Z,8.77
2023-03-06T18:26:25.727Z,8.13
2023-03-06T18:29:02.722Z,10.55
2023-03-06T18:31:36.384Z,10.32
2023-03-06T18:34:15.050Z,11.18
2023-03-06T18:36:43.975Z,9.55
2023-03-06T18:39:13.397Z,8.15
2023-03-06T18:41:41.657Z,7.80
2023-03-06T18:44:08.865Z,8.82
2023-03-06T18:46:38.346Z,10.35
2023-03-06T18:49:06.026Z,8.15
2023-03-06T18:51:33.740Z,9.52
2023-03-06T18:54:02.634Z,12.48
2023-03-06T18:56:30.126Z,9.07
2023-03-06T18:59:00.812Z,15.98
2023-03-06T19:01:31.017Z,13.52
2023-03-06T19:04:02.932Z,11.25
2023-03-06T19:06:30.564Z,11.77
2023-03-06T19:08:58.946Z,12.90
2023-03-06T19:11:27.215Z,15.15
2023-03-06T19:13:54.546Z,14.65
2023-03-06T19:16:25.905Z,12.73
2023-03-06T19:18:55.996Z,15.50
2023-03-06T19:21:26.882Z,11.00
2023-03-06T19:23:54.585Z,13.05
2023-03-06T19:26:22.001Z,12.90
2023-03-06T19:28:49.837Z,13.57
2023-03-06T19:31:20.772Z,10.88
2023-03-06T19:33:49.719Z,11.23
2023-03-06T19:36:18.413Z,9.98
2023-03-06T19:38:46.416Z,11.50
2023-03-06T19:41:14.004Z,9.07
2023-03-06T19:43:42.564Z,11.10
2023-03-06T19:46:14.408Z,10.48
2023-03-06T19:48:42.264Z,13.23
2023-03-06T19:51:10.487Z,10.95
2023-03-06T19:53:39.181Z,11.45
2023-03-06T19:56:08.370Z,12.25
2023-03-06T19:58:35.705Z,11.93
2023-03-06T20:01:08.090Z,11.13
2023-03-06T20:06:03.192Z,13.35
2023-03-06T20:08:30.470Z,15.90
2023-03-06T20:10:57.674Z,12.48
2023-03-06T20:13:24.857Z,13.63
2023-03-06T20:15:52.015Z,13.23
2023-03-06T20:18:19.309Z,11.13
2023-03-06T20:20:57.167Z,11.25
2023-03-06T20:23:24.477Z,14.25
2023-03-06T20:25:51.877Z,13.55
2023-03-06T20:28:19.085Z,12.90
2023-03-06T20:30:46.303Z,13.30
2023-03-06T20:33:15.650Z,13.88
2023-03-06T20:35:43.249Z,11.88
2023-03-06T20:38:11.542Z,11.35
2023-03-06T20:40:39.760Z,11.55
2023-03-06T20:43:07.062Z,14.80
2023-03-06T20:45:34.894Z,13.02
2023-03-06T20:48:02.937Z,12.27
2023-03-06T20:50:30.117Z,10.57
2023-03-06T20:52:59.134Z,12.77
2023-03-06T20:55:26.331Z,16.92
2023-03-06T20:57:53.558Z,11.23
2023-03-06T21:00:21.256Z,14.10
2023-03-06T21:02:48.457Z,10.60
2023-03-06T21:05:15.684Z,12.35
2023-03-06T21:07:42.928Z,9.57
2023-03-06T21:10:10.444Z,13.57
2023-03-06T21:12:37.555Z,11.85
2023-03-06T21:15:05.099Z,11.43
2023-03-06T21:17:32.318Z,11.48
2023-03-06T21:19:59.480Z,14.35
2023-03-06T21:22:26.770Z,13.00
2023-03-06T21:24:53.958Z,9.35
2023-03-06T21:27:21.062Z,9.98
2023-03-06T21:29:48.119Z,10.75
2023-03-06T21:32:15.294Z,11.65
2023-03-06T21:34:42.364Z,11.25
2023-03-06T21:37:09.532Z,11.95
2023-03-06T21:39:36.663Z,13.10
2023-03-06T21:42:03.831Z,10.52
2023-03-06T21:44:30.866Z,9.75
2023-03-06T21:46:58.013Z,13.70
2023-03-06T21:49:26.435Z,12.70
2023-03-06T21:51:53.839Z,13.27
2023-03-06T21:54:21.442Z,14.68
2023-03-06T21:56:48.733Z,15.07
2023-03-06T21:59:15.926Z,12.85
2023-03-06T22:01:43.017Z,11.48
2023-03-06T22:04:10.266Z,12.45
2023-03-06T22:06:38.600Z,13.63
2023-03-06T22:09:05.710Z,11.85
2023-03-06T22:11:37.185Z,14.45
2023-03-06T22:14:05.441Z,14.67
2023-03-06T22:16:33.246Z,10.93
2023-03-06T22:19:00.464Z,14.98
2023-03-06T22:21:27.697Z,10.68
2023-03-06T22:23:57.794Z,14.45
2023-03-06T22:26:26.317Z,10.50
2023-03-06T22:28:53.721Z,9.13
2023-03-06T22:31:26.265Z,15.00
2023-03-06T22:33:54.847Z,11.65
2023-03-06T22:36:23.198Z,12.50
2023-03-06T22:38:55.654Z,12.95
2023-03-06T22:43:50.290Z,13.60
2023-03-06T22:46:18.207Z,13.75
2023-03-06T22:48:45.757Z,13.55
2023-03-06T22:51:18.681Z,14.88
2023-03-06T22:53:46.689Z,13.80
2023-03-06T22:56:16.925Z,12.73
2023-03-06T22:58:45.220Z,14.70
2023-03-06T23:01:18.892Z,14.15
2023-03-06T23:03:51.545Z,14.43
2023-03-06T23:06:36.515Z,13.63
2023-03-06T23:09:13.629Z,14.70
2023-03-06T23:11:59.300Z,13.07
2023-03-06T23:14:50.012Z,12.98
2023-03-06T23:17:35.721Z,13.25
2023-03-06T23:20:22.236Z,12.63
2023-03-06T23:23:07.899Z,14.32
2023-03-06T23:25:41.077Z,12.63
2023-03-06T23:28:08.369Z,13.07
2023-03-06T23:30:35.512Z,16.00
2023-03-06T23:33:02.571Z,13.00
2023-03-06T23:35:29.689Z,13.38
2023-03-06T23:37:57.670Z,13.68
2023-03-06T23:40:25.126Z,13.15
2023-03-06T23:42:52.278Z,11.13
2023-03-06T23:45:19.564Z,11.38
2023-03-06T23:47:46.730Z,14.57
2023-03-06T23:50:14.460Z,13.75
2023-03-06T23:52:41.580Z,12.98
2023-03-06T23:55:09.409Z,12.32
2023-03-06T23:57:36.450Z,11.07
